Time;durP1;ratioP1;P1;durP2;ratioP2;P2;SDS_P1;SDS_P2;PMS_P1;PMS_P2;Temp;Humidity;BMP_temperature;BMP_pressure;BME280_temperature;BME280_humidity;BME280_pressure;Samples;Min_cycle;Max_cycle;Signal;HPM_P1;HPM_P2
2022/03/08 00:01:32;;;;;;;41.70;24.23;;;;;;;0.96;78.02;100186.22;5083536;28;20552;-76
2022/03/08 00:03:58;;;;;;;45.17;24.55;;;;;;;1.00;77.86;100180.03;5048127;28;20035;-76
2022/03/08 00:06:24;;;;;;;41.47;23.60;;;;;;;1.01;77.81;100183.63;5063840;28;20038;-76
2022/03/08 00:08:49;;;;;;;41.08;23.08;;;;;;;1.05;77.75;100168.38;5035967;28;20060;-76
2022/03/08 00:11:16;;;;;;;43.88;23.90;;;;;;;1.03;77.79;100174.09;5041058;28;20059;-76
2022/03/08 00:13:42;;;;;;;41.80;23.77;;;;;;;1.04;77.86;100169.47;5039649;28;20058;-76
2022/03/08 00:16:07;;;;;;;47.08;24.42;;;;;;;1.05;77.76;100177.41;5038745;28;20665;-76
2022/03/08 00:18:33;;;;;;;43.20;25.05;;;;;;;1.07;77.91;100169.81;5038021;28;20039;-76
2022/03/08 00:20:58;;;;;;;42.38;24.52;;;;;;;1.10;77.72;100168.50;5043388;28;20029;-76
2022/03/08 00:23:24;;;;;;;45.28;24.33;;;;;;;1.12;77.52;100155.41;5037128;28;20021;-76
2022/03/08 00:25:50;;;;;;;44.70;24.60;;;;;;;1.14;77.43;100152.44;5045144;28;20033;-76
2022/03/08 00:28:15;;;;;;;42.63;23.75;;;;;;;1.15;77.81;100154.94;5047018;28;20028;-76
2022/03/08 00:30:41;;;;;;;44.45;24.48;;;;;;;1.17;77.68;100158.25;5014266;28;20036;-76
2022/03/08 00:33:06;;;;;;;47.53;25.13;;;;;;;1.20;77.57;100155.03;5052783;28;20031;-76
2022/03/08 00:35:32;;;;;;;41.47;23.80;;;;;;;1.19;77.53;100152.53;5030285;28;20020;-77
2022/03/08 00:37:59;;;;;;;46.47;24.10;;;;;;;1.21;77.60;100150.41;5045972;28;20036;-77
2022/03/08 00:40:24;;;;;;;42.55;22.42;;;;;;;1.25;77.32;100143.38;5069608;28;20032;-76
2022/03/08 00:42:51;;;;;;;46.20;24.30;;;;;;;1.27;77.56;100143.97;5058174;28;20025;-77
2022/03/08 00:45:16;;;;;;;47.17;24.13;;;;;;;1.25;77.51;100141.44;5073378;28;20051;-76
2022/03/08 00:47:42;;;;;;;41.10;23.55;;;;;;;1.26;77.50;100145.03;5056400;28;20037;-76
2022/03/08 00:50:12;;;;;;;43.25;22.90;;;;;;;1.26;77.40;100145.03;5028649;28;20040;-76
2022/03/08 00:52:38;;;;;;;42.97;23.13;;;;;;;1.27;77.72;100146.69;5055560;28;20025;-77
2022/03/08 00:55:04;;;;;;;45.50;23.80;;;;;;;1.28;77.54;100151.09;5058709;28;20408;-76
2022/03/08 00:57:30;;;;;;;45.33;24.77;;;;;;;1.30;77.45;100140.75;5042233;28;20029;-76
2022/03/08 00:59:55;;;;;;;43.55;23.58;;;;;;;1.30;77.52;100141.56;5069696;28;20040;-77
2022/03/08 01:02:21;;;;;;;45.58;23.55;;;;;;;1.29;77.62;100133.63;5046736;28;20036;-77
2022/03/08 01:04:46;;;;;;;43.42;23.10;;;;;;;1.31;77.47;100136.94;5041468;28;20025;-76
2022/03/08 01:07:14;;;;;;;45.00;23.98;;;;;;;1.31;77.51;100143.25;5037731;28;20033;-77
2022/03/08 01:09:39;;;;;;;46.05;23.98;;;;;;;1.30;77.50;100140.75;5041118;28;20533;-77
2022/03/08 01:12:05;;;;;;;45.08;23.83;;;;;;;1.32;77.58;100141.34;5043292;28;20049;-77
2022/03/08 01:14:31;;;;;;;43.35;24.38;;;;;;;1.32;77.44;100133.94;5024573;28;20036;-77
2022/03/08 01:16:56;;;;;;;42.60;23.17;;;;;;;1.33;77.76;100130.13;5061937;28;20047;-76
2022/03/08 01:19:22;;;;;;;41.80;23.77;;;;;;;1.32;77.38;100127.66;5054923;28;20040;-77
2022/03/08 01:21:47;;;;;;;46.97;24.38;;;;;;;1.34;77.46;100128.25;5018272;28;20059;-77
2022/03/08 01:24:13;;;;;;;46.58;24.17;;;;;;;1.37;77.76;100132.41;5024409;28;20024;-76
2022/03/08 01:26:38;;;;;;;42.05;24.40;;;;;;;1.35;77.46;100121.69;5027097;28;20024;-76
2022/03/08 01:29:04;;;;;;;42.10;22.52;;;;;;;1.32;77.49;100117.53;5007836;28;20028;-76
2022/03/08 01:31:29;;;;;;;43.88;23.75;;;;;;;1.32;77.78;100111.25;5042190;28;20028;-76
2022/03/08 01:33:55;;;;;;;44.67;23.88;;;;;;;1.30;77.75;100124.31;5053191;28;20036;-76
2022/03/08 01:36:21;;;;;;;44.13;22.92;;;;;;;1.31;77.89;100120.53;5039141;28;20033;-76
2022/03/08 01:38:47;;;;;;;39.95;23.40;;;;;;;1.32;77.84;100103.03;5050904;28;20057;-76
2022/03/08 01:41:12;;;;;;;42.10;23.52;;;;;;;1.32;77.68;100105.75;5036562;28;20449;-76
2022/03/08 01:43:38;;;;;;;46.63;23.40;;;;;;;1.31;77.84;100104.13;5033003;28;20040;-76
2022/03/08 01:46:03;;;;;;;43.55;23.65;;;;;;;1.29;77.91;100101.59;5029748;28;20037;-76
2022/03/08 01:48:30;;;;;;;43.22;23.60;;;;;;;1.30;78.08;100102.44;5036636;28;20033;-76
2022/03/08 01:50:56;;;;;;;45.90;24.00;;;;;;;1.30;78.26;100105.16;5041511;28;20051;-76
2022/03/08 01:53:21;;;;;;;43.83;23.88;;;;;;;1.31;78.18;100095.91;5030035;28;20143;-76
2022/03/08 01:55:47;;;;;;;39.97;23.08;;;;;;;1.32;78.22;100106.59;5018188;28;20036;-76
2022/03/08 01:58:12;;;;;;;44.90;24.10;;;;;;;1.31;78.45;100102.19;5008718;28;20033;-76
2022/03/08 02:00:38;;;;;;;48.30;23.92;;;;;;;1.31;78.41;100093.16;5033015;28;20075;-76
2022/03/08 02:03:03;;;;;;;42.67;23.98;;;;;;;1.34;78.41;100098.16;5020336;28;20028;-76
2022/03/08 02:05:30;;;;;;;46.22;24.55;;;;;;;1.36;78.19;100095.97;5051578;28;20033;-77
2022/03/08 02:07:55;;;;;;;44.50;24.13;;;;;;;1.37;78.25;100089.47;5026580;28;20028;-76
2022/03/08 02:10:21;;;;;;;43.95;24.08;;;;;;;1.39;78.45;100083.72;5026523;28;20037;-76
2022/03/08 02:12:47;;;;;;;45.83;24.00;;;;;;;1.39;78.41;100081.81;5031627;28;20040;-76
2022/03/08 02:15:23;;;;;;;45.67;23.80;;;;;;;1.44;77.94;100090.13;5021360;28;20123;-76
2022/03/08 02:17:49;;;;;;;44.13;23.77;;;;;;;1.44;78.33;100084.66;5029202;28;20041;-76
2022/03/08 02:20:14;;;;;;;48.10;25.25;;;;;;;1.45;78.45;100080.00;5028785;28;20115;-76
2022/03/08 02:22:44;;;;;;;44.90;24.90;;;;;;;1.46;78.34;100073.47;5018141;28;20096;-76
2022/03/08 02:25:10;;;;;;;41.47;23.27;;;;;;;1.46;78.49;100071.56;5040913;28;20031;-77
2022/03/08 02:27:46;;;;;;;44.70;24.00;;;;;;;1.48;78.38;100072.16;5059126;28;20028;-76
2022/03/08 02:30:12;;;;;;;43.70;24.25;;;;;;;1.49;78.42;100065.59;5045801;28;20120;-77
2022/03/08 02:32:38;;;;;;;44.42;23.98;;;;;;;1.51;78.29;100066.19;5059954;28;20021;-76
2022/03/08 02:35:08;;;;;;;45.15;23.63;;;;;;;1.50;78.16;100069.97;5066906;28;20033;-76
2022/03/08 02:37:45;;;;;;;41.60;22.02;;;;;;;1.51;78.45;100068.94;5046160;28;20035;-76
2022/03/08 02:40:22;;;;;;;51.00;26.00;;;;;;;1.50;78.57;100066.41;5064718;28;20118;-76
2022/03/08 02:42:48;;;;;;;45.28;22.52;;;;;;;1.48;78.55;100058.47;5032689;28;20517;-76
2022/03/08 02:45:13;;;;;;;49.80;24.05;;;;;;;1.46;78.75;100063.34;5041278;28;20033;-76
2022/03/08 02:47:39;;;;;;;42.30;22.83;;;;;;;1.46;78.66;100060.63;5026252;28;20060;-77
2022/03/08 02:50:06;;;;;;;44.17;23.63;;;;;;;1.45;78.66;100056.22;5047605;28;20477;-77
2022/03/08 02:52:32;;;;;;;45.85;25.15;;;;;;;1.42;78.69;100050.41;5047789;28;20508;-76
2022/03/08 02:54:58;;;;;;;45.90;23.25;;;;;;;1.42;78.94;100051.25;5041724;28;20417;-76
2022/03/08 02:57:23;;;;;;;44.47;24.58;;;;;;;1.40;79.19;100050.66;5039918;28;20036;-76
2022/03/08 02:59:49;;;;;;;43.13;23.73;;;;;;;1.41;78.83;100052.31;5060000;28;20033;-76
2022/03/08 03:02:14;;;;;;;41.60;22.75;;;;;;;1.38;79.22;100052.78;5054711;28;20036;-77
2022/03/08 03:04:40;;;;;;;44.45;24.33;;;;;;;1.38;79.53;100044.59;5059396;28;20476;-76
2022/03/08 03:07:06;;;;;;;45.40;24.58;;;;;;;1.38;79.55;100050.06;5090158;28;20535;-77
2022/03/08 03:09:31;;;;;;;44.13;23.45;;;;;;;1.38;79.57;100050.06;5072272;28;20037;-76
2022/03/08 03:11:57;;;;;;;47.00;24.85;;;;;;;1.36;79.92;100049.47;5080059;28;20067;-76
2022/03/08 03:14:22;;;;;;;43.85;23.60;;;;;;;1.39;80.11;100050.88;5062117;28;20108;-77
2022/03/08 03:16:48;;;;;;;42.40;24.38;;;;;;;1.39;79.94;100046.25;5076899;28;20485;-76
2022/03/08 03:19:13;;;;;;;46.13;24.40;;;;;;;1.42;79.95;100044.91;5078845;28;20044;-76
2022/03/08 03:21:38;;;;;;;45.38;23.90;;;;;;;1.45;80.08;100038.94;5072772;28;20032;-76
2022/03/08 03:24:04;;;;;;;46.03;23.95;;;;;;;1.46;80.21;100043.38;5067270;28;20041;-76
2022/03/08 03:26:30;;;;;;;46.53;23.33;;;;;;;1.48;80.39;100043.97;5061436;28;20020;-76
2022/03/08 03:28:55;;;;;;;46.80;25.08;;;;;;;1.49;80.34;100043.69;5075780;28;20057;-76
2022/03/08 03:31:21;;;;;;;43.30;23.90;;;;;;;1.51;80.53;100032.53;5070950;28;20032;-76
2022/03/08 03:33:46;;;;;;;43.08;24.05;;;;;;;1.54;80.23;100035.59;5033090;28;20056;-76
2022/03/08 03:36:12;;;;;;;45.20;23.80;;;;;;;1.58;80.23;100029.63;5026324;28;20091;-76
2022/03/08 03:38:37;;;;;;;43.53;23.05;;;;;;;1.61;80.20;100027.22;5016101;28;20028;-77
2022/03/08 03:41:03;;;;;;;42.90;22.95;;;;;;;1.63;80.17;100019.59;5040951;28;20087;-77
2022/03/08 03:43:28;;;;;;;44.42;23.88;;;;;;;1.66;80.21;100018.25;5076843;28;20033;-76
2022/03/08 03:45:54;;;;;;;43.25;23.85;;;;;;;1.66;80.15;100019.09;5076360;28;20032;-76
2022/03/08 03:48:19;;;;;;;40.63;23.13;;;;;;;1.68;79.96;100016.13;5078615;28;20433;-76
2022/03/08 03:50:44;;;;;;;43.78;23.95;;;;;;;1.70;80.35;100016.69;5060803;28;20394;-76
2022/03/08 03:53:10;;;;;;;40.63;22.30;;;;;;;1.71;80.16;100010.97;5046145;28;20031;-76
2022/03/08 03:55:36;;;;;;;42.80;23.52;;;;;;;1.75;80.35;100016.78;5068193;28;20036;-76
2022/03/08 03:58:01;;;;;;;41.72;23.05;;;;;;;1.76;80.24;100004.75;5043554;28;20028;-76
2022/03/08 04:00:27;;;;;;;44.55;24.52;;;;;;;1.80;80.09;100003.16;5087961;28;20028;-76
2022/03/08 04:02:53;;;;;;;44.33;24.15;;;;;;;1.82;79.89;100003.75;5059277;28;20036;-76
2022/03/08 04:05:19;;;;;;;44.55;24.90;;;;;;;1.86;79.52;100002.16;5078558;28;20039;-76
2022/03/08 04:07:44;;;;;;;40.22;22.63;;;;;;;1.86;79.74;100002.16;5029220;28;20029;-77
2022/03/08 04:10:11;;;;;;;43.45;23.65;;;;;;;1.90;79.63;100008.00;5061714;28;20032;-77
2022/03/08 04:12:36;;;;;;;46.25;24.45;;;;;;;1.88;80.01;100001.94;5076491;28;20033;-77
2022/03/08 04:15:02;;;;;;;45.45;23.90;;;;;;;1.92;79.96;100011.28;5066687;28;20044;-76
2022/03/08 04:17:28;;;;;;;44.45;23.48;;;;;;;1.91;79.82;100005.00;5074470;28;20041;-76
2022/03/08 04:19:54;;;;;;;44.20;23.70;;;;;;;1.93;80.01;100007.50;5046053;28;20040;-77
2022/03/08 04:22:20;;;;;;;40.17;22.95;;;;;;;1.93;79.61;100002.84;5051322;28;20025;-76
2022/03/08 04:24:46;;;;;;;46.15;23.73;;;;;;;1.95;79.97;100008.91;5058833;28;20082;-77
2022/03/08 04:27:11;;;;;;;46.15;24.92;;;;;;;1.98;79.80;100011.16;5048036;28;20143;-77
2022/03/08 04:29:37;;;;;;;44.17;24.42;;;;;;;2.00;80.26;100008.16;5057563;28;20463;-76
2022/03/08 04:32:03;;;;;;;43.05;24.25;;;;;;;2.01;80.85;100016.13;5077069;28;20032;-76
2022/03/08 04:34:28;;;;;;;47.08;24.92;;;;;;;2.01;81.90;100005.16;5061739;28;20025;-76
2022/03/08 04:36:54;;;;;;;47.95;25.15;;;;;;;2.03;83.20;100006.81;5074970;28;20112;-77
2022/03/08 04:39:19;;;;;;;48.50;25.80;;;;;;;2.02;84.16;100011.47;5062082;28;20032;-76
2022/03/08 04:41:45;;;;;;;46.70;25.08;;;;;;;2.02;85.43;100006.00;5062365;28;20040;-77
2022/03/08 04:44:10;;;;;;;45.25;25.23;;;;;;;2.03;85.57;100017.78;5056494;28;20539;-77
2022/03/08 04:46:36;;;;;;;45.90;24.77;;;;;;;2.04;84.93;100011.22;5031438;28;20406;-77
2022/03/08 04:49:02;;;;;;;44.45;24.10;;;;;;;2.03;85.63;100006.81;5046634;28;20043;-76
2022/03/08 04:51:27;;;;;;;44.25;24.80;;;;;;;1.98;86.08;100005.66;5039641;28;20024;-76
2022/03/08 04:53:53;;;;;;;47.30;24.17;;;;;;;1.99;86.52;100006.50;5050413;28;20032;-77
2022/03/08 04:56:18;;;;;;;45.42;23.83;;;;;;;1.97;86.11;99995.78;5062392;28;20036;-76
2022/03/08 04:58:45;;;;;;;44.28;24.30;;;;;;;1.94;85.93;99988.06;5060130;28;20070;-76
2022/03/08 05:01:10;;;;;;;45.08;24.20;;;;;;;1.97;85.54;100003.16;5072723;28;20025;-76
2022/03/08 05:03:36;;;;;;;42.10;22.52;;;;;;;1.95;85.58;99994.38;5079855;28;20032;-76
2022/03/08 05:06:01;;;;;;;46.63;24.08;;;;;;;1.94;86.35;99998.19;5076943;28;20036;-76
2022/03/08 05:08:27;;;;;;;46.17;24.40;;;;;;;1.92;86.23;99992.97;5043027;28;20048;-77
2022/03/08 05:10:52;;;;;;;44.33;24.63;;;;;;;1.91;86.44;99999.53;5028991;28;20032;-76
2022/03/08 05:13:18;;;;;;;45.08;24.77;;;;;;;1.90;86.18;99986.91;5073137;28;20029;-76
2022/03/08 05:15:47;;;;;;;43.17;23.50;;;;;;;1.88;86.05;99983.59;5048557;28;20048;-76
2022/03/08 05:18:12;;;;;;;46.38;24.05;;;;;;;1.91;86.29;99987.75;5044877;28;20118;-76
2022/03/08 05:20:38;;;;;;;42.88;23.45;;;;;;;1.91;86.35;99983.09;5060371;28;20029;-76
2022/03/08 05:23:03;;;;;;;45.22;24.13;;;;;;;1.89;86.76;99974.28;5036220;28;20493;-76
2022/03/08 05:25:29;;;;;;;49.75;24.48;;;;;;;1.89;86.20;99974.28;5059835;28;20058;-76
2022/03/08 05:27:55;;;;;;;41.80;24.30;;;;;;;1.90;86.76;99975.97;5064062;28;20077;-76
2022/03/08 05:30:20;;;;;;;46.35;23.80;;;;;;;1.87;86.39;99973.72;5048853;28;20393;-76
2022/03/08 05:32:46;;;;;;;49.58;25.15;;;;;;;1.90;86.69;99975.97;5064851;28;20032;-76
2022/03/08 05:35:11;;;;;;;50.70;25.08;;;;;;;1.89;86.96;99979.75;5058233;28;20077;-77
2022/03/08 05:37:37;;;;;;;44.53;24.02;;;;;;;1.90;86.80;99975.97;5059898;28;20484;-76
2022/03/08 05:40:05;;;;;;;52.70;25.98;;;;;;;1.91;87.22;99974.03;5062569;28;20028;-76
2022/03/08 05:42:30;;;;;;;50.80;25.33;;;;;;;1.91;87.98;99971.31;5069823;28;20510;-76
2022/03/08 05:44:56;;;;;;;48.60;25.42;;;;;;;1.92;88.09;99967.47;5075462;28;20032;-76
2022/03/08 05:47:21;;;;;;;45.85;24.45;;;;;;;1.92;87.67;99967.47;5072512;28;20040;-76
2022/03/08 05:49:47;;;;;;;45.58;24.05;;;;;;;1.92;87.89;99971.06;5073180;28;20032;-77
2022/03/08 05:52:13;;;;;;;45.00;24.02;;;;;;;1.95;87.68;99967.84;5034974;28;20021;-76
2022/03/08 05:54:39;;;;;;;46.28;23.60;;;;;;;1.94;87.09;99965.31;5059318;28;20455;-76
2022/03/08 05:57:04;;;;;;;45.67;24.80;;;;;;;1.96;87.66;99964.00;5060457;28;20037;-76
2022/03/08 05:59:32;;;;;;;46.03;24.20;;;;;;;1.96;87.50;99977.69;5067362;28;20032;-76
2022/03/08 06:01:58;;;;;;;46.08;24.20;;;;;;;1.98;87.48;99963.75;5062716;28;20075;-76
2022/03/08 06:04:26;;;;;;;45.58;24.35;;;;;;;1.98;87.74;99977.47;5046632;28;20024;-77
2022/03/08 06:06:54;;;;;;;46.72;23.80;;;;;;;1.97;87.44;99976.59;5060302;28;20024;-76
2022/03/08 06:09:19;;;;;;;45.45;23.38;;;;;;;1.99;87.47;99976.38;5059642;28;20064;-72
2022/03/08 06:11:45;;;;;;;44.80;23.30;;;;;;;1.99;87.30;99982.66;5061777;28;20070;-71
2022/03/08 06:14:10;;;;;;;47.17;23.98;;;;;;;1.99;87.36;99977.19;5070559;28;20044;-72
2022/03/08 06:16:36;;;;;;;44.72;22.25;;;;;;;1.98;86.98;99971.97;5081660;28;20477;-72
2022/03/08 06:19:01;;;;;;;45.97;23.98;;;;;;;1.97;87.67;99965.66;5082308;28;20489;-72
2022/03/08 06:21:27;;;;;;;43.45;23.70;;;;;;;1.98;87.62;99967.31;5065758;28;20362;-72
2022/03/08 06:23:52;;;;;;;45.88;23.10;;;;;;;1.99;87.51;99968.16;5078909;28;20726;-71
2022/03/08 06:26:18;;;;;;;45.38;22.55;;;;;;;2.00;87.81;99972.53;5081284;28;20033;-71
2022/03/08 06:28:44;;;;;;;43.50;23.00;;;;;;;1.98;87.47;99964.59;5064155;28;20036;-72
2022/03/08 06:31:09;;;;;;;44.85;22.83;;;;;;;2.00;87.63;99970.63;5074255;28;20028;-71
2022/03/08 06:33:35;;;;;;;45.85;23.75;;;;;;;2.01;88.34;99960.53;5067520;28;20500;-71
2022/03/08 06:36:00;;;;;;;43.72;23.42;;;;;;;2.01;88.33;99972.31;5084307;28;20033;-71
2022/03/08 06:38:26;;;;;;;44.10;23.52;;;;;;;2.03;88.54;99974.78;5077300;28;20024;-72
2022/03/08 06:40:51;;;;;;;45.80;23.05;;;;;;;2.03;88.24;99965.72;5074844;28;20028;-71
2022/03/08 06:43:16;;;;;;;42.58;22.25;;;;;;;2.06;88.41;99962.47;5082238;28;20040;-71
2022/03/08 06:45:43;;;;;;;40.85;23.00;;;;;;;2.07;88.92;99964.16;5064919;28;20039;-72
2022/03/08 06:48:10;;;;;;;43.17;23.40;;;;;;;2.10;89.31;99969.13;5066450;28;20036;-71
2022/03/08 06:50:35;;;;;;;43.22;22.92;;;;;;;2.11;89.05;99966.13;5071718;28;20501;-71
2022/03/08 06:53:00;;;;;;;39.70;21.85;;;;;;;2.16;89.27;99966.22;5075626;28;20040;-71
2022/03/08 06:55:26;;;;;;;41.05;21.63;;;;;;;2.17;88.55;99964.28;5062147;28;20477;-71
2022/03/08 06:57:52;;;;;;;37.88;21.50;;;;;;;2.21;88.70;99968.19;5078352;28;20036;-72
2022/03/08 07:00:18;;;;;;;40.78;22.48;;;;;;;2.26;88.62;99968.28;5075132;28;20047;-71
2022/03/08 07:02:44;;;;;;;41.97;22.38;;;;;;;2.34;88.58;99969.72;5077624;28;20024;-71
2022/03/08 07:05:10;;;;;;;42.45;22.10;;;;;;;2.40;88.28;99979.72;5076874;28;20032;-71
2022/03/08 07:07:35;;;;;;;41.83;22.05;;;;;;;2.44;88.26;99965.22;5074730;28;20032;-71
2022/03/08 07:10:01;;;;;;;40.58;21.55;;;;;;;2.52;88.20;99969.44;5069117;28;20041;-71
2022/03/08 07:12:28;;;;;;;40.50;21.92;;;;;;;2.59;87.81;99977.47;5080456;28;20036;-71
2022/03/08 07:14:53;;;;;;;44.33;21.70;;;;;;;2.63;87.23;99978.63;5075702;28;20036;-76
2022/03/08 07:17:19;;;;;;;40.67;20.77;;;;;;;2.68;88.03;99978.69;5062950;28;20037;-76
2022/03/08 07:19:44;;;;;;;46.47;21.83;;;;;;;2.73;87.73;99969.69;5079976;28;20073;-76
2022/03/08 07:22:10;;;;;;;42.97;21.75;;;;;;;2.78;87.61;99980.72;5077504;28;20492;-77
2022/03/08 07:24:35;;;;;;;42.03;21.77;;;;;;;2.81;87.44;99972.81;5061790;28;20029;-77
2022/03/08 07:27:01;;;;;;;41.83;21.15;;;;;;;2.85;87.11;99973.97;5027868;28;20021;-73
2022/03/08 07:29:26;;;;;;;42.53;22.30;;;;;;;2.87;86.92;99974.56;5063149;28;20059;-73
2022/03/08 07:31:51;;;;;;;41.67;20.80;;;;;;;2.91;86.69;99970.19;5078135;28;20543;-73
2022/03/08 07:34:17;;;;;;;40.95;21.60;;;;;;;2.92;86.74;99971.03;5063041;28;20035;-73
2022/03/08 07:36:42;;;;;;;42.33;21.10;;;;;;;2.97;86.54;99973.00;5061969;28;20036;-73
2022/03/08 07:39:09;;;;;;;45.90;22.77;;;;;;;2.98;86.40;99980.13;5062724;28;20054;-73
2022/03/08 07:41:34;;;;;;;39.97;21.58;;;;;;;3.03;86.44;99980.19;5073673;28;20025;-73
2022/03/08 07:44:01;;;;;;;40.08;21.83;;;;;;;3.05;86.33;99994.50;5082992;28;20024;-72
2022/03/08 07:46:26;;;;;;;40.90;21.80;;;;;;;3.08;86.64;99985.75;5074275;28;20021;-73
2022/03/08 07:48:52;;;;;;;40.28;21.10;;;;;;;3.14;86.57;100001.19;5069191;28;20388;-72
2022/03/08 07:51:17;;;;;;;40.42;21.40;;;;;;;3.16;86.57;99988.03;5063387;28;20478;-72
2022/03/08 07:53:43;;;;;;;38.90;21.85;;;;;;;3.19;86.55;99984.78;5075359;28;20024;-72
2022/03/08 07:56:08;;;;;;;37.03;20.90;;;;;;;3.24;86.68;99995.00;5077219;28;20028;-72
2022/03/08 07:58:37;;;;;;;37.05;20.98;;;;;;;3.27;86.45;99987.06;5077559;28;20528;-72
2022/03/08 08:01:04;;;;;;;38.00;19.90;;;;;;;3.32;86.29;99981.63;5075499;28;20028;-73
2022/03/08 08:03:29;;;;;;;43.78;21.95;;;;;;;3.34;86.28;99984.94;5078092;28;20033;-72
2022/03/08 08:05:55;;;;;;;39.38;20.35;;;;;;;3.38;86.27;99989.91;5071066;28;20087;-73
2022/03/08 08:08:20;;;;;;;39.17;19.98;;;;;;;3.41;86.18;99992.13;5066571;28;20028;-73
2022/03/08 08:10:46;;;;;;;35.92;20.02;;;;;;;3.45;85.97;99993.25;5065589;28;20553;-73
2022/03/08 08:13:12;;;;;;;37.65;20.52;;;;;;;3.49;85.91;100003.47;5077048;28;20075;-73
2022/03/08 08:15:39;;;;;;;36.58;19.80;;;;;;;3.56;85.89;99992.28;5058924;28;20062;-73
2022/03/08 08:18:04;;;;;;;37.15;20.70;;;;;;;3.59;86.08;100002.72;5099811;28;20040;-73
2022/03/08 08:20:30;;;;;;;35.78;19.48;;;;;;;3.66;85.73;99997.03;5084685;28;20032;-73
2022/03/08 08:22:55;;;;;;;36.53;20.13;;;;;;;3.77;85.22;99999.63;5097202;28;20056;-74
2022/03/08 08:25:21;;;;;;;38.25;20.48;;;;;;;3.79;85.58;99997.44;5083470;28;20028;-73
2022/03/08 08:27:46;;;;;;;37.85;19.85;;;;;;;3.84;86.31;99995.81;5059058;28;20050;-73
2022/03/08 08:30:18;;;;;;;38.53;20.02;;;;;;;3.91;85.66;100000.00;5050652;28;20016;-76
2022/03/08 08:32:44;;;;;;;35.88;19.27;;;;;;;3.98;85.46;100005.25;5069046;28;20493;-77
2022/03/08 08:35:09;;;;;;;38.53;19.15;;;;;;;4.03;85.00;99991.56;5046160;28;20040;-77
2022/03/08 08:37:35;;;;;;;34.80;19.40;;;;;;;4.11;85.68;100007.56;5017996;28;20024;-77
2022/03/08 08:40:00;;;;;;;33.42;18.05;;;;;;;4.19;85.17;99998.00;5077812;28;20028;-75
2022/03/08 08:42:26;;;;;;;35.10;18.63;;;;;;;4.26;85.16;100009.59;5064008;28;20016;-76
2022/03/08 08:44:52;;;;;;;34.58;18.42;;;;;;;4.33;85.31;100001.94;5078265;28;20062;-77
2022/03/08 08:47:17;;;;;;;33.47;18.13;;;;;;;4.41;84.90;100003.38;5042253;28;20024;-77
2022/03/08 08:49:43;;;;;;;33.03;18.83;;;;;;;4.55;84.50;99999.06;5076569;28;20024;-77
2022/03/08 08:52:09;;;;;;;33.50;18.73;;;;;;;4.65;84.67;100003.78;5087716;28;20024;-77
2022/03/08 08:54:36;;;;;;;35.80;18.80;;;;;;;4.74;84.98;100004.94;5068404;28;20056;-76
2022/03/08 08:57:02;;;;;;;32.20;18.73;;;;;;;4.83;84.70;99999.75;5061666;28;20468;-77
2022/03/08 08:59:28;;;;;;;34.47;18.60;;;;;;;4.97;83.82;99992.66;5096418;28;20093;-77
2022/03/08 09:01:56;;;;;;;35.45;18.75;;;;;;;5.07;83.30;100008.34;5068685;28;20028;-77
2022/03/08 09:04:22;;;;;;;36.67;18.58;;;;;;;5.17;83.42;100002.91;5048876;28;20047;-77
2022/03/08 09:06:47;;;;;;;31.15;18.25;;;;;;;5.29;82.88;100008.16;5096611;28;20063;-77
2022/03/08 09:09:13;;;;;;;31.38;17.85;;;;;;;5.33;82.43;100007.34;5054252;28;20055;-77
2022/03/08 09:11:53;;;;;;;29.80;17.95;;;;;;;5.41;82.88;100000.50;5067474;28;20539;-78
2022/03/08 09:14:19;;;;;;;35.63;19.23;;;;;;;5.47;82.33;100002.16;5063456;28;20036;-77
2022/03/08 09:16:45;;;;;;;28.80;17.15;;;;;;;5.57;82.16;100015.94;5063609;28;20039;-77
2022/03/08 09:19:10;;;;;;;30.83;17.52;;;;;;;5.64;82.04;100001.06;5060844;28;20029;-77
2022/03/08 09:21:40;;;;;;;36.03;17.67;;;;;;;5.68;81.92;100000.22;5065978;28;20028;-77
2022/03/08 09:24:06;;;;;;;31.38;17.92;;;;;;;5.77;82.17;100006.06;5061920;28;20020;-77
2022/03/08 09:26:31;;;;;;;31.50;17.05;;;;;;;5.88;81.91;100002.19;5085049;28;20067;-77
2022/03/08 09:28:57;;;;;;;30.63;17.00;;;;;;;5.95;81.47;100005.53;5068081;28;20032;-77
2022/03/08 09:31:22;;;;;;;29.92;17.83;;;;;;;6.01;82.05;100004.41;5062841;28;20029;-77
2022/03/08 09:33:51;;;;;;;29.15;17.20;;;;;;;6.14;81.10;100004.97;5068358;28;20046;-77
2022/03/08 09:36:19;;;;;;;27.88;16.38;;;;;;;6.26;81.40;100008.25;5082089;28;20581;-77
2022/03/08 09:38:45;;;;;;;29.08;16.70;;;;;;;6.39;80.59;99999.41;5079478;28;20178;-77
2022/03/08 09:41:11;;;;;;;28.85;16.98;;;;;;;6.49;80.71;100009.59;5070054;28;20036;-76
2022/03/08 09:43:37;;;;;;;29.73;17.02;;;;;;;6.60;79.96;100004.88;5067315;28;20052;-77
2022/03/08 09:46:04;;;;;;;28.08;16.30;;;;;;;6.69;80.06;100008.75;5076377;28;20023;-77
2022/03/08 09:48:33;;;;;;;29.60;16.60;;;;;;;6.84;79.35;100010.63;5044546;28;20115;-77
2022/03/08 09:50:59;;;;;;;27.48;16.17;;;;;;;6.89;79.15;100008.66;5046840;28;20024;-78
2022/03/08 09:53:25;;;;;;;24.85;15.82;;;;;;;6.97;78.88;100011.97;5079841;28;20049;-77
2022/03/08 09:55:51;;;;;;;25.25;16.02;;;;;;;7.00;78.98;100014.97;5032425;28;20519;-77
2022/03/08 09:58:20;;;;;;;28.27;16.60;;;;;;;7.09;79.19;100009.69;5098451;28;20039;-77
2022/03/08 10:00:58;;;;;;;27.98;16.35;;;;;;;7.11;79.12;100002.78;5051968;28;20487;-77
2022/03/08 10:03:42;;;;;;;25.67;16.15;;;;;;;7.18;78.53;100007.97;5064090;28;20089;-77
2022/03/08 10:06:08;;;;;;;25.00;14.95;;;;;;;7.26;78.30;100001.84;5071927;28;20036;-77
2022/03/08 10:08:33;;;;;;;28.13;17.10;;;;;;;7.35;78.46;100004.84;5063055;28;20170;-77
2022/03/08 10:11:03;;;;;;;27.95;15.80;;;;;;;7.44;78.95;100007.81;5075838;28;20028;-78
2022/03/08 10:13:35;;;;;;;26.77;15.80;;;;;;;7.51;78.32;99994.53;5070323;28;20024;-77
2022/03/08 10:16:26;;;;;;;26.75;15.95;;;;;;;7.66;78.43;100007.41;5102684;28;20028;-77
2022/03/08 10:18:56;;;;;;;28.73;15.75;;;;;;;7.76;78.04;99994.34;5074422;28;20036;-77
2022/03/08 10:21:29;;;;;;;27.15;16.15;;;;;;;7.92;77.78;100008.06;5110715;28;20024;-77
2022/03/08 10:23:55;;;;;;;22.83;14.85;;;;;;;8.05;77.70;99999.09;5044768;28;20036;-77
2022/03/08 10:26:23;;;;;;;26.63;16.05;;;;;;;8.22;77.85;99999.50;5065655;28;20028;-77
2022/03/08 10:28:53;;;;;;;26.73;15.45;;;;;;;8.36;76.64;99996.03;5079691;28;20085;-77
2022/03/08 10:31:19;;;;;;;26.80;16.13;;;;;;;8.50;76.64;100002.59;5079116;28;20084;-77
2022/03/08 10:33:45;;;;;;;25.00;15.00;;;;;;;8.65;75.27;100005.19;5078387;28;20036;-77
2022/03/08 10:36:20;;;;;;;26.35;15.63;;;;;;;8.71;74.75;99998.47;5088584;28;20054;-77
2022/03/08 10:39:09;;;;;;;28.90;15.38;;;;;;;8.80;75.00;100006.13;5059805;28;20176;-77
2022/03/08 10:41:55;;;;;;;25.55;14.93;;;;;;;8.84;74.39;100015.50;5069820;28;20029;-77
2022/03/08 10:44:36;;;;;;;24.38;15.57;;;;;;;8.87;75.71;100001.06;5102380;28;20118;-77
2022/03/08 10:47:08;;;;;;;24.13;15.52;;;;;;;8.92;74.95;100003.78;5057523;28;20052;-77
2022/03/08 10:49:36;;;;;;;25.85;15.27;;;;;;;8.95;74.59;100011.50;5063771;28;20056;-77
2022/03/08 10:52:05;;;;;;;25.95;14.95;;;;;;;8.94;74.17;100007.91;5065680;28;20039;-77
2022/03/08 10:54:31;;;;;;;25.33;15.07;;;;;;;8.98;74.26;100013.69;5057203;28;20056;-77
2022/03/08 10:56:59;;;;;;;32.03;16.48;;;;;;;8.98;74.23;100021.16;5073367;28;20044;-77
2022/03/08 10:59:25;;;;;;;26.38;15.60;;;;;;;8.99;74.18;100008.97;5081260;28;20024;-77
2022/03/08 11:01:53;;;;;;;27.95;16.85;;;;;;;8.98;74.26;100019.22;5047008;28;20037;-77
2022/03/08 11:04:20;;;;;;;26.83;15.30;;;;;;;8.98;75.00;100016.44;5049280;28;20028;-77
2022/03/08 11:06:47;;;;;;;27.20;17.25;;;;;;;8.98;74.61;100010.09;5059069;28;20047;-77
2022/03/08 11:09:13;;;;;;;30.23;16.40;;;;;;;8.95;74.61;100006.78;5071844;28;20047;-77
2022/03/08 11:11:38;;;;;;;28.05;15.85;;;;;;;8.94;75.05;100007.06;5060143;28;20024;-77
2022/03/08 11:14:04;;;;;;;24.95;16.10;;;;;;;8.93;74.84;100003.47;5081162;28;20027;-77
2022/03/08 11:16:30;;;;;;;26.05;16.23;;;;;;;8.94;74.79;100007.06;5054516;28;20370;-77